createdAt,value
2023-03-25T00:01:14.074Z,5.91
2023-03-25T00:03:50.771Z,6.07
2023-03-25T00:06:17.977Z,5.77
2023-03-25T00:08:44.585Z,5.73
2023-03-25T00:11:11.633Z,5.72
2023-03-25T00:13:38.345Z,6.03
2023-03-25T00:16:07.192Z,5.38
2023-03-25T00:18:33.974Z,5.64
2023-03-25T00:21:02.587Z,5.66
2023-03-25T00:23:31.131Z,5.53
2023-03-25T00:26:00.410Z,5.76
2023-03-25T00:28:33.394Z,5.55
2023-03-25T00:31:06.056Z,4.89
2023-03-25T00:33:33.233Z,4.80
2023-03-25T00:36:00.009Z,5.20
2023-03-25T00:38:34.191Z,5.15
2023-03-25T00:41:29.124Z,5.65
2023-03-25T00:43:57.158Z,5.66
2023-03-25T00:46:27.324Z,5.01
2023-03-25T00:48:54.321Z,4.92
2023-03-25T00:51:22.254Z,5.08
2023-03-25T00:53:54.532Z,4.97
2023-03-25T00:56:24.578Z,4.73
2023-03-25T00:58:51.187Z,4.58
2023-03-25T01:01:23.347Z,4.54
2023-03-25T01:03:57.991Z,4.48
2023-03-25T01:06:32.535Z,4.40
2023-03-25T01:09:00.963Z,4.52
2023-03-25T01:11:31.221Z,4.46
2023-03-25T01:13:59.829Z,4.26
2023-03-25T01:16:27.367Z,4.02
2023-03-25T01:18:55.792Z,3.87
2023-03-25T01:21:22.514Z,4.09
2023-03-25T01:23:49.291Z,4.28
2023-03-25T01:26:15.997Z,4.14
2023-03-25T01:28:43.953Z,4.33
2023-03-25T01:31:12.944Z,4.37
2023-03-25T01:33:39.986Z,4.45
2023-03-25T01:36:10.017Z,4.33
2023-03-25T01:38:37.252Z,4.31
2023-03-25T01:41:04.959Z,4.51
2023-03-25T01:43:31.980Z,4.35
2023-03-25T01:45:59.439Z,4.14
2023-03-25T01:48:45.029Z,4.29
2023-03-25T01:51:22.634Z,4.17
2023-03-25T01:53:53.221Z,3.96
2023-03-25T01:56:36.732Z,4.32
2023-03-25T01:59:06.790Z,4.27
2023-03-25T02:01:34.187Z,3.84
2023-03-25T02:04:03.085Z,4.01
2023-03-25T02:06:46.780Z,4.23
2023-03-25T02:09:16.648Z,4.38
2023-03-25T02:11:43.182Z,4.34
2023-03-25T02:14:14.926Z,4.39
2023-03-25T02:17:19.916Z,4.41
2023-03-25T02:20:09.261Z,4.33
2023-03-25T02:23:01.978Z,4.50
2023-03-25T02:25:46.942Z,4.52
2023-03-25T02:28:26.157Z,4.63
2023-03-25T02:31:17.326Z,4.61
2023-03-25T02:34:06.024Z,4.61
2023-03-25T02:37:10.896Z,4.81
2023-03-25T02:39:55.040Z,4.99
2023-03-25T02:42:46.355Z,4.64
2023-03-25T02:45:17.122Z,4.89
2023-03-25T02:47:49.082Z,4.92
2023-03-25T02:50:38.600Z,4.75
2023-03-25T02:53:10.937Z,4.92
2023-03-25T02:55:41.434Z,5.01
2023-03-25T02:58:11.904Z,4.59
2023-03-25T03:00:39.802Z,4.96
2023-03-25T03:03:08.400Z,4.99
2023-03-25T03:05:43.752Z,5.06
2023-03-25T03:08:37.793Z,4.98
2023-03-25T03:11:13.671Z,4.88
2023-03-25T03:14:36.279Z,4.74
2023-03-25T03:17:08.389Z,4.88
2023-03-25T03:20:16.566Z,4.83
2023-03-25T03:22:54.359Z,4.87
2023-03-25T03:25:29.983Z,4.89
2023-03-25T03:28:25.754Z,5.08
2023-03-25T03:31:59.201Z,4.13
2023-03-25T03:34:44.826Z,4.66
2023-03-25T03:37:19.242Z,4.76
2023-03-25T03:39:48.808Z,4.76
2023-03-25T03:42:18.866Z,4.88
2023-03-25T03:44:54.413Z,4.93
2023-03-25T03:47:26.212Z,4.70
2023-03-25T03:50:03.748Z,4.40
2023-03-25T03:52:40.989Z,4.70
2023-03-25T03:55:14.109Z,4.77
2023-03-25T03:57:52.450Z,4.88
2023-03-25T04:00:25.769Z,4.68
2023-03-25T04:03:14.570Z,4.78
2023-03-25T04:05:48.813Z,4.66
2023-03-25T04:08:32.810Z,4.63
2023-03-25T04:11:05.481Z,4.66
2023-03-25T04:13:36.820Z,4.18
2023-03-25T04:16:03.879Z,4.32
2023-03-25T04:18:33.696Z,4.71
2023-03-25T04:21:01.307Z,4.69
2023-03-25T04:23:31.922Z,4.42
2023-03-25T04:26:02.622Z,4.20
2023-03-25T04:28:29.645Z,4.36
2023-03-25T04:30:57.480Z,4.58
2023-03-25T04:33:25.157Z,4.55
2023-03-25T04:35:52.877Z,4.63
2023-03-25T04:38:20.387Z,4.35
2023-03-25T04:40:47.750Z,4.63
2023-03-25T04:43:15.854Z,4.68
2023-03-25T04:45:49.020Z,4.43
2023-03-25T04:48:24.468Z,4.27
2023-03-25T04:50:55.949Z,4.28
2023-03-25T04:53:22.732Z,4.14
2023-03-25T04:55:50.359Z,4.46
2023-03-25T04:58:17.585Z,4.68
2023-03-25T05:00:45.844Z,4.20
2023-03-25T05:03:12.547Z,3.83
2023-03-25T05:05:39.521Z,4.31
2023-03-25T05:08:06.099Z,4.17
2023-03-25T05:10:32.680Z,4.37
2023-03-25T05:13:01.572Z,4.19
2023-03-25T05:15:30.397Z,4.20
2023-03-25T05:17:57.075Z,4.26
2023-03-25T05:20:24.460Z,4.26
2023-03-25T05:22:53.376Z,4.57
2023-03-25T05:25:22.877Z,4.34
2023-03-25T05:27:49.381Z,4.45
2023-03-25T05:30:16.644Z,4.66
2023-03-25T05:32:45.791Z,4.15
2023-03-25T05:35:12.651Z,4.43
2023-03-25T05:37:39.222Z,4.37
2023-03-25T05:40:14.964Z,4.77
2023-03-25T05:42:48.805Z,4.41
2023-03-25T05:45:16.439Z,4.77
2023-03-25T05:47:44.399Z,4.59
2023-03-25T05:50:11.248Z,5.05
2023-03-25T05:52:41.437Z,4.63
2023-03-25T05:55:14.723Z,5.14
2023-03-25T05:57:41.493Z,4.33
2023-03-25T06:00:11.039Z,4.98
2023-03-25T06:02:43.387Z,4.84
2023-03-25T06:05:14.005Z,5.05
2023-03-25T06:07:46.123Z,4.87
2023-03-25T06:10:19.866Z,5.14
2023-03-25T06:12:47.712Z,5.00
2023-03-25T06:15:29.195Z,4.87
2023-03-25T06:18:05.745Z,4.47
2023-03-25T06:20:33.621Z,4.57
2023-03-25T06:23:01.973Z,4.64
2023-03-25T06:25:28.674Z,4.67
2023-03-25T06:28:05.986Z,4.90
2023-03-25T06:30:32.728Z,5.20
2023-03-25T06:33:02.947Z,5.10
2023-03-25T06:35:31.282Z,5.27
2023-03-25T06:37:58.087Z,5.67
2023-03-25T06:40:31.063Z,5.63
2023-03-25T06:43:00.104Z,4.76
2023-03-25T06:46:05.892Z,4.96
2023-03-25T06:48:58.445Z,6.00
2023-03-25T06:51:25.191Z,6.11
2023-03-25T06:53:55.117Z,6.01
2023-03-25T06:56:24.253Z,6.15
2023-03-25T06:58:50.975Z,6.25
2023-03-25T07:01:21.002Z,6.04
2023-03-25T07:03:53.151Z,6.12
2023-03-25T07:06:21.942Z,6.64
2023-03-25T07:08:51.805Z,5.85
2023-03-25T07:11:26.364Z,6.22
2023-03-25T07:13:54.022Z,5.92
2023-03-25T07:16:21.962Z,5.90
2023-03-25T07:18:53.812Z,5.69
2023-03-25T07:21:21.182Z,6.02
2023-03-25T07:24:08.560Z,5.69
2023-03-25T07:27:34.221Z,5.66
2023-03-25T07:30:12.832Z,5.40
2023-03-25T07:32:41.203Z,6.02
2023-03-25T07:35:16.946Z,6.34
2023-03-25T07:37:43.639Z,5.24
2023-03-25T07:40:13.069Z,5.72
2023-03-25T07:42:40.226Z,5.86
2023-03-25T07:45:24.360Z,6.30
2023-03-25T07:48:02.811Z,6.58
2023-03-25T07:50:35.061Z,5.59
2023-03-25T07:53:04.791Z,5.72
2023-03-25T07:55:33.889Z,5.98
2023-03-25T07:58:02.963Z,6.33
2023-03-25T08:00:33.823Z,6.34
2023-03-25T08:03:10.917Z,6.41
2023-03-25T08:06:16.021Z,6.47
2023-03-25T08:08:45.749Z,6.45
2023-03-25T08:11:12.479Z,7.04
2023-03-25T08:13:39.449Z,6.67
2023-03-25T08:16:12.197Z,6.52
2023-03-25T08:18:39.162Z,5.71
2023-03-25T08:21:06.107Z,6.31
2023-03-25T08:23:36.857Z,6.34
2023-03-25T08:26:05.584Z,6.23
2023-03-25T08:28:32.305Z,6.87
2023-03-25T08:31:02.392Z,7.34
2023-03-25T08:33:39.642Z,7.21
2023-03-25T08:36:07.715Z,7.34
2023-03-25T08:38:35.261Z,6.96
2023-03-25T08:41:02.931Z,7.00
2023-03-25T08:43:29.506Z,6.92
2023-03-25T08:45:56.379Z,7.30
2023-03-25T08:48:24.427Z,6.68
2023-03-25T08:50:50.958Z,6.26
2023-03-25T08:53:17.464Z,6.44
2023-03-25T08:55:44.042Z,7.15
2023-03-25T08:58:10.575Z,7.06
2023-03-25T09:00:37.769Z,7.31
2023-03-25T09:03:06.283Z,7.73
2023-03-25T09:05:33.287Z,7.94
2023-03-25T09:08:00.935Z,7.29
2023-03-25T09:10:27.692Z,6.43
2023-03-25T09:12:54.451Z,7.05
2023-03-25T09:15:21.148Z,7.49
2023-03-25T09:17:47.990Z,7.40
2023-03-25T09:20:14.925Z,6.73
2023-03-25T09:22:41.674Z,7.64
2023-03-25T09:25:09.065Z,8.19
2023-03-25T09:27:35.662Z,8.45
2023-03-25T09:30:03.540Z,8.94
2023-03-25T09:32:30.196Z,8.59
2023-03-25T09:34:56.852Z,8.57
2023-03-25T09:40:43.764Z,7.22
2023-03-25T09:50:07.018Z,7.79
2023-03-25T09:53:19.455Z,8.42
2023-03-25T10:08:16.812Z,7.25
2023-03-25T10:18:40.837Z,7.90
2023-03-25T10:22:20.574Z,7.46
2023-03-25T10:25:00.368Z,6.54
2023-03-25T10:27:36.131Z,4.88
2023-03-25T10:30:15.452Z,3.06
2023-03-25T10:32:50.556Z,1.74
2023-03-25T10:35:22.288Z,1.30
2023-03-25T10:37:53.941Z,1.40
2023-03-25T10:40:30.013Z,1.73
2023-03-25T10:43:21.040Z,2.08
2023-03-25T10:45:52.235Z,2.09
2023-03-25T10:48:18.958Z,2.14
2023-03-25T10:50:46.640Z,2.50
2023-03-25T10:53:31.722Z,2.57
2023-03-25T10:56:24.242Z,2.91
2023-03-25T11:02:06.675Z,4.16
2023-03-25T11:04:38.138Z,4.29
2023-03-25T11:07:44.902Z,4.63
2023-03-25T11:10:23.854Z,4.29
2023-03-25T11:13:03.417Z,4.60
2023-03-25T11:16:32.477Z,4.66
2023-03-25T11:20:01.597Z,5.00
2023-03-25T11:27:25.310Z,5.40
2023-03-25T11:29:55.813Z,5.70
2023-03-25T11:32:40.015Z,6.29
2023-03-25T11:35:17.281Z,5.89
2023-03-25T11:37:53.629Z,6.18
2023-03-25T11:40:21.006Z,5.92
2023-03-25T11:42:54.194Z,6.27
2023-03-25T11:45:33.879Z,6.92
2023-03-25T11:48:15.572Z,6.65
2023-03-25T11:51:09.644Z,6.73
2023-03-25T11:53:37.219Z,6.89
2023-03-25T11:56:08.865Z,6.78
2023-03-25T11:58:39.395Z,6.59
2023-03-25T12:01:18.074Z,6.09
2023-03-25T12:03:45.511Z,6.87
2023-03-25T12:06:12.253Z,6.71
2023-03-25T12:08:59.015Z,6.96
2023-03-25T12:12:28.706Z,7.80
2023-03-25T12:15:14.112Z,8.12
2023-03-25T12:17:43.698Z,8.28
2023-03-25T12:20:28.610Z,8.08
2023-03-25T12:23:02.038Z,8.35
2023-03-25T12:25:41.815Z,7.73
2023-03-25T12:28:24.464Z,8.21
2023-03-25T12:31:08.801Z,7.94
2023-03-25T12:33:44.544Z,7.60
2023-03-25T12:36:26.033Z,8.04
2023-03-25T12:39:00.349Z,8.37
2023-03-25T12:41:49.030Z,8.44
2023-03-25T12:44:37.930Z,7.98
2023-03-25T12:47:18.267Z,8.07
2023-03-25T12:50:22.899Z,8.24
2023-03-25T12:53:07.146Z,8.21
2023-03-25T12:55:36.683Z,8.32
2023-03-25T12:58:09.149Z,7.75
2023-03-25T13:01:10.272Z,7.83
2023-03-25T13:03:39.918Z,7.95
2023-03-25T13:06:34.924Z,8.37
2023-03-25T13:09:24.798Z,7.85
2023-03-25T13:11:56.833Z,8.50
2023-03-25T13:15:26.427Z,8.35
2023-03-25T13:18:14.289Z,8.98
2023-03-25T13:21:06.890Z,8.77
2023-03-25T13:24:08.605Z,8.81
2023-03-25T13:26:44.871Z,8.60
2023-03-25T13:29:37.927Z,8.28
2023-03-25T13:32:15.466Z,8.76
2023-03-25T13:34:53.626Z,8.36
2023-03-25T13:37:29.327Z,8.56
2023-03-25T13:40:14.532Z,8.26
2023-03-25T13:42:52.101Z,8.87
2023-03-25T13:45:22.320Z,9.25
2023-03-25T13:48:15.663Z,9.16
2023-03-25T13:50:45.928Z,8.45
2023-03-25T13:53:34.857Z,9.38
2023-03-25T13:56:07.020Z,9.78
2023-03-25T13:58:49.195Z,9.70
2023-03-25T14:01:37.595Z,9.26
2023-03-25T14:04:32.330Z,9.25
2023-03-25T14:07:22.780Z,8.86
2023-03-25T14:10:10.684Z,8.68
2023-03-25T14:12:45.394Z,8.55
2023-03-25T14:15:16.940Z,8.29
2023-03-25T14:17:47.016Z,8.18
2023-03-25T14:20:25.281Z,9.10
2023-03-25T14:22:59.325Z,9.25
2023-03-25T14:25:40.432Z,9.72
2023-03-25T14:28:12.257Z,9.38
2023-03-25T14:30:40.011Z,8.17
2023-03-25T14:33:10.397Z,8.72
2023-03-25T14:35:36.933Z,8.30
2023-03-25T14:38:09.520Z,8.44
2023-03-25T14:40:47.388Z,8.56
2023-03-25T14:43:47.806Z,9.19
2023-03-25T14:46:20.515Z,8.95
2023-03-25T14:49:18.303Z,8.90
2023-03-25T14:51:52.506Z,8.79
2023-03-25T14:54:19.110Z,9.32
2023-03-25T14:56:56.862Z,9.32
2023-03-25T14:59:31.019Z,8.39
2023-03-25T15:02:04.675Z,9.01
2023-03-25T15:04:35.450Z,9.36
2023-03-25T15:07:03.465Z,9.14
2023-03-25T15:09:31.311Z,8.79
2023-03-25T15:12:02.443Z,8.93
2023-03-25T15:14:38.358Z,9.02
2023-03-25T15:17:11.788Z,9.22
2023-03-25T15:20:09.086Z,8.96
2023-03-25T15:22:36.097Z,8.31
2023-03-25T15:25:12.461Z,8.67
2023-03-25T15:28:04.117Z,9.07
2023-03-25T15:31:01.554Z,8.94
2023-03-25T15:34:11.621Z,8.75
2023-03-25T15:36:55.231Z,9.03
2023-03-25T15:39:52.804Z,8.96
2023-03-25T15:42:28.543Z,8.75
2023-03-25T15:45:08.735Z,8.82
2023-03-25T15:47:56.682Z,8.76
2023-03-25T15:50:35.622Z,8.92
2023-03-25T15:53:39.860Z,9.06
2023-03-25T15:56:14.869Z,8.48
2023-03-25T15:58:55.131Z,8.80
2023-03-25T16:01:29.231Z,8.41
2023-03-25T16:04:34.460Z,8.31
2023-03-25T16:07:04.939Z,8.05
2023-03-25T16:09:33.589Z,8.59
2023-03-25T16:12:02.834Z,8.33
2023-03-25T16:14:32.310Z,8.11
2023-03-25T16:17:01.999Z,8.40
2023-03-25T16:19:40.023Z,8.68
2023-03-25T16:22:28.180Z,8.49
2023-03-25T16:24:57.393Z,8.52
2023-03-25T16:27:30.379Z,8.50
2023-03-25T16:29:57.726Z,8.75
2023-03-25T16:32:33.399Z,8.67
2023-03-25T16:35:07.796Z,8.50
2023-03-25T16:37:41.690Z,8.38
2023-03-25T16:40:13.061Z,8.27
2023-03-25T16:42:45.531Z,8.22
2023-03-25T16:45:22.886Z,8.10
2023-03-25T16:47:50.160Z,8.28
2023-03-25T16:50:19.870Z,8.30
2023-03-25T16:52:47.150Z,8.06
2023-03-25T16:55:29.349Z,8.42
2023-03-25T16:57:56.204Z,8.60
2023-03-25T17:00:51.213Z,8.60
2023-03-25T17:03:46.338Z,7.94
2023-03-25T17:06:30.925Z,8.30
2023-03-25T17:08:58.897Z,8.46
2023-03-25T17:11:31.390Z,8.21
2023-03-25T17:14:15.567Z,8.35
2023-03-25T17:16:43.160Z,8.53
2023-03-25T17:19:31.003Z,8.49
2023-03-25T17:22:42.247Z,8.40
2023-03-25T17:25:24.000Z,8.05
2023-03-25T17:27:55.737Z,7.92
2023-03-25T17:30:41.994Z,8.29
2023-03-25T17:33:31.444Z,7.80
2023-03-25T17:35:58.074Z,7.74
2023-03-25T17:38:28.406Z,7.98
2023-03-25T17:54:09.864Z,7.67
2023-03-25T17:56:38.583Z,7.98
2023-03-25T17:59:21.096Z,7.95
2023-03-25T18:01:50.364Z,7.64
2023-03-25T18:04:19.936Z,8.12
2023-03-25T18:06:49.981Z,7.40
2023-03-25T18:09:33.711Z,7.76
2023-03-25T18:12:03.218Z,7.66
2023-03-25T18:14:34.223Z,7.35
2023-03-25T18:17:00.878Z,7.53
2023-03-25T18:19:34.094Z,7.69
2023-03-25T18:22:09.991Z,7.47
2023-03-25T18:24:40.718Z,7.38
2023-03-25T18:27:27.832Z,7.40
2023-03-25T18:30:35.084Z,7.31
2023-03-25T18:33:05.071Z,7.42
2023-03-25T18:35:35.193Z,7.14
2023-03-25T18:38:02.050Z,7.02
2023-03-25T18:40:33.688Z,7.04
2023-03-25T18:43:00.802Z,7.16
2023-03-25T18:45:28.078Z,7.10
2023-03-25T18:47:56.150Z,7.11
2023-03-25T18:50:49.027Z,7.30
2023-03-25T18:53:20.990Z,7.21
2023-03-25T18:55:53.488Z,7.22
2023-03-25T18:58:24.389Z,7.05
2023-03-25T19:00:53.446Z,7.06
2023-03-25T19:03:39.199Z,6.70
2023-03-25T19:06:21.942Z,6.69
2023-03-25T19:09:04.555Z,6.97
2023-03-25T19:12:00.048Z,6.83
2023-03-25T19:14:27.491Z,6.67
2023-03-25T19:17:03.514Z,6.64
2023-03-25T19:19:33.541Z,6.46
2023-03-25T19:22:00.413Z,6.44
2023-03-25T19:24:28.848Z,6.44
2023-03-25T19:26:59.323Z,5.56
2023-03-25T19:29:26.993Z,6.07
2023-03-25T19:31:54.022Z,6.37
2023-03-25T19:34:30.229Z,6.04
2023-03-25T19:37:02.949Z,6.03
2023-03-25T19:39:31.795Z,5.85
2023-03-25T19:42:02.229Z,5.93
2023-03-25T19:44:31.557Z,5.71
2023-03-25T19:47:17.071Z,5.76
2023-03-25T19:49:51.001Z,5.70
2023-03-25T19:52:26.934Z,5.63
2023-03-25T19:55:09.265Z,5.65
2023-03-25T19:57:36.190Z,5.49
2023-03-25T20:00:14.301Z,5.61
2023-03-25T20:02:52.607Z,5.58
2023-03-25T20:05:30.370Z,5.64
2023-03-25T20:07:57.460Z,5.67
2023-03-25T20:10:27.884Z,5.58
2023-03-25T20:12:58.090Z,5.50
2023-03-25T20:15:26.375Z,5.50
2023-03-25T20:17:54.230Z,5.18
2023-03-25T20:20:22.011Z,5.42
2023-03-25T20:22:48.914Z,5.45
2023-03-25T20:25:17.908Z,5.58
2023-03-25T20:27:47.431Z,5.18
2023-03-25T20:30:17.684Z,5.30
2023-03-25T20:32:48.788Z,4.99
2023-03-25T20:35:22.647Z,5.16
2023-03-25T20:37:53.193Z,5.14
2023-03-25T20:40:25.420Z,5.13
2023-03-25T20:43:00.258Z,5.00
2023-03-25T20:45:29.531Z,5.09
2023-03-25T20:47:57.794Z,4.81
2023-03-25T20:50:27.749Z,4.75
2023-03-25T20:53:02.837Z,5.05
2023-03-25T20:55:29.816Z,4.62
2023-03-25T20:57:56.622Z,4.74
2023-03-25T21:00:25.808Z,4.63
2023-03-25T21:02:52.812Z,4.69
2023-03-25T21:05:19.888Z,4.91
2023-03-25T21:07:49.210Z,4.80
2023-03-25T21:10:20.636Z,4.84
2023-03-25T21:12:51.387Z,4.63
2023-03-25T21:15:20.809Z,4.96
2023-03-25T21:17:51.162Z,4.73
2023-03-25T21:20:21.977Z,4.68
2023-03-25T21:22:54.089Z,4.87
2023-03-25T21:25:38.896Z,4.63
2023-03-25T21:28:10.854Z,4.57
2023-03-25T21:30:40.009Z,4.61
2023-03-25T21:33:08.797Z,4.81
2023-03-25T21:35:37.896Z,4.67
2023-03-25T21:38:08.183Z,4.82
2023-03-25T21:40:50.324Z,4.75
2023-03-25T21:43:19.728Z,4.78
2023-03-25T21:45:57.912Z,4.60
2023-03-25T21:48:43.245Z,4.49
2023-03-25T21:51:15.314Z,4.74
2023-03-25T21:53:47.722Z,4.86
2023-03-25T21:56:17.968Z,4.80
2023-03-25T21:58:51.397Z,4.73
2023-03-25T22:01:29.129Z,4.67
2023-03-25T22:03:59.246Z,4.83
2023-03-25T22:06:43.988Z,4.58
2023-03-25T22:09:20.181Z,4.66
2023-03-25T22:11:49.093Z,5.08
2023-03-25T22:14:19.190Z,5.34
2023-03-25T22:16:54.845Z,5.01
2023-03-25T22:19:24.073Z,5.12
2023-03-25T22:21:53.487Z,5.04
2023-03-25T22:24:20.401Z,5.09
2023-03-25T22:26:47.081Z,5.07
2023-03-25T22:29:25.884Z,4.89
2023-03-25T22:32:08.720Z,5.40
2023-03-25T22:34:39.524Z,4.74
2023-03-25T22:37:10.035Z,5.31
2023-03-25T22:39:39.198Z,5.30
2023-03-25T22:42:09.094Z,5.27
2023-03-25T22:44:44.739Z,5.39
2023-03-25T22:47:11.487Z,5.32
2023-03-25T22:49:38.159Z,5.67
2023-03-25T22:52:04.993Z,5.32
2023-03-25T22:54:31.773Z,5.50
2023-03-25T22:56:58.448Z,5.69
2023-03-25T22:59:25.027Z,5.24
2023-03-25T23:01:51.643Z,5.22
2023-03-25T23:04:18.237Z,5.37
2023-03-25T23:06:51.224Z,5.23
2023-03-25T23:09:43.706Z,5.72
2023-03-25T23:12:28.335Z,5.40
2023-03-25T23:14:56.469Z,5.29
2023-03-25T23:17:24.447Z,5.43
2023-03-25T23:19:52.296Z,5.34
2023-03-25T23:22:19.688Z,5.27
2023-03-25T23:24:46.226Z,5.69
2023-03-25T23:27:13.186Z,5.54
2023-03-25T23:29:41.595Z,5.42
2023-03-25T23:32:10.307Z,5.46
2023-03-25T23:34:38.310Z,5.20
2023-03-25T23:37:07.656Z,5.30
2023-03-25T23:39:34.915Z,5.56
2023-03-25T23:42:01.498Z,5.25
2023-03-25T23:44:28.011Z,5.16
2023-03-25T23:46:54.592Z,5.20
2023-03-25T23:49:21.181Z,5.12
2023-03-25T23:51:47.719Z,5.17
2023-03-25T23:54:15.819Z,5.02
2023-03-25T23:56:43.062Z,4.89
2023-03-25T23:59:11.651Z,5.00
